createdAt,value
2023-11-19T00:01:34.121Z,79.28
2023-11-19T00:06:37.206Z,79.46
2023-11-19T00:11:40.192Z,79.46
2023-11-19T00:16:43.151Z,79.73
2023-11-19T00:21:47.179Z,79.94
2023-11-19T00:26:51.441Z,79.90
2023-11-19T00:31:54.551Z,79.50
2023-11-19T00:36:57.614Z,79.20
2023-11-19T00:42:00.645Z,78.78
2023-11-19T00:47:03.987Z,78.85
2023-11-19T00:52:07.717Z,79.11
2023-11-19T00:57:10.852Z,79.33
2023-11-19T01:02:15.505Z,79.51
2023-11-19T01:07:18.638Z,79.35
2023-11-19T01:12:22.104Z,79.03
2023-11-19T01:17:25.084Z,79.30
2023-11-19T01:22:28.097Z,79.07
2023-11-19T01:27:31.145Z,78.86
2023-11-19T01:32:34.143Z,79.56
2023-11-19T01:37:37.782Z,79.00
2023-11-19T01:42:42.346Z,78.89
2023-11-19T01:47:45.613Z,79.20
2023-11-19T01:52:49.579Z,79.17
2023-11-19T01:57:54.847Z,78.89
2023-11-19T02:02:58.480Z,79.30
2023-11-19T02:08:02.869Z,78.88
2023-11-19T02:13:07.536Z,79.08
2023-11-19T02:18:29.395Z,78.72
2023-11-19T02:23:32.894Z,78.27
2023-11-19T02:28:38.320Z,78.31
2023-11-19T02:33:41.750Z,78.00
2023-11-19T02:38:44.776Z,78.74
2023-11-19T02:43:49.885Z,79.26
2023-11-19T02:48:53.214Z,78.79
2023-11-19T02:53:56.301Z,78.49
2023-11-19T02:58:59.602Z,78.16
2023-11-19T03:04:04.128Z,78.45
2023-11-19T03:09:11.717Z,78.67
2023-11-19T03:14:14.755Z,78.72
2023-11-19T03:19:25.898Z,78.84
2023-11-19T03:24:29.198Z,78.95
2023-11-19T03:29:32.208Z,78.84
2023-11-19T03:34:35.210Z,79.33
2023-11-19T03:39:38.623Z,79.27
2023-11-19T03:44:41.583Z,79.42
2023-11-19T03:49:49.921Z,79.21
2023-11-19T03:54:52.888Z,79.23
2023-11-19T03:59:56.846Z,79.16
2023-11-19T04:04:59.671Z,78.81
2023-11-19T04:10:03.372Z,78.76
2023-11-19T04:15:07.997Z,79.05
2023-11-19T04:20:14.747Z,79.44
2023-11-19T04:25:18.981Z,79.04
2023-11-19T04:30:21.874Z,78.74
2023-11-19T04:35:24.861Z,78.68
2023-11-19T04:40:27.884Z,78.03
2023-11-19T04:45:31.042Z,78.19
2023-11-19T04:50:34.023Z,78.84
2023-11-19T04:55:37.024Z,79.18
2023-11-19T05:00:40.055Z,78.31
2023-11-19T05:05:43.028Z,77.93
2023-11-19T05:10:46.054Z,78.02
2023-11-19T05:15:49.029Z,78.55
2023-11-19T05:20:52.009Z,78.80
2023-11-19T05:25:55.303Z,78.92
2023-11-19T05:30:58.849Z,78.33
2023-11-19T05:36:04.706Z,78.37
2023-11-19T05:41:07.782Z,78.87
2023-11-19T05:51:17.698Z,79.09
2023-11-19T05:56:23.126Z,79.18
2023-11-19T06:01:26.480Z,78.93
2023-11-19T06:06:30.666Z,79.06
2023-11-19T06:11:37.246Z,79.31
2023-11-19T06:16:41.595Z,79.33
2023-11-19T06:21:44.724Z,79.04
2023-11-19T06:26:47.698Z,79.17
2023-11-19T06:31:50.692Z,79.25
2023-11-19T06:36:54.311Z,79.29
2023-11-19T06:41:57.839Z,79.68
2023-11-19T06:47:00.809Z,79.77
2023-11-19T06:52:10.455Z,79.94
2023-11-19T06:57:13.647Z,79.60
2023-11-19T07:02:16.778Z,79.68
2023-11-19T07:07:20.057Z,79.69
2023-11-19T07:12:23.065Z,79.94
2023-11-19T07:17:26.301Z,79.86
2023-11-19T07:22:31.385Z,80.05
2023-11-19T07:27:40.539Z,80.02
2023-11-19T07:32:44.247Z,80.09
2023-11-19T07:37:49.172Z,80.23
2023-11-19T07:42:52.574Z,79.61
2023-11-19T07:47:56.083Z,79.86
2023-11-19T07:52:59.110Z,80.29
2023-11-19T07:58:02.488Z,80.75
2023-11-19T08:03:06.289Z,80.83
2023-11-19T08:08:09.636Z,80.77
2023-11-19T08:13:13.269Z,80.92
2023-11-19T08:18:16.328Z,81.13
2023-11-19T08:23:19.665Z,81.10
2023-11-19T08:28:22.626Z,80.91
2023-11-19T08:33:25.663Z,80.96
2023-11-19T08:38:32.169Z,80.81
2023-11-19T08:43:35.443Z,80.94
2023-11-19T08:48:39.532Z,80.95
2023-11-19T08:53:43.245Z,80.59
2023-11-19T08:58:46.239Z,80.29
2023-11-19T09:03:49.385Z,79.69
2023-11-19T09:08:52.558Z,80.32
2023-11-19T09:13:55.599Z,80.81
2023-11-19T09:19:00.541Z,80.63
2023-11-19T09:24:03.809Z,80.70
2023-11-19T09:29:06.798Z,80.69
2023-11-19T09:34:09.953Z,80.67
2023-11-19T09:39:19.167Z,80.82
2023-11-19T09:44:22.527Z,80.71
2023-11-19T09:54:34.876Z,80.50
2023-11-19T09:59:40.291Z,80.46
2023-11-19T10:04:54.462Z,80.37
2023-11-19T10:09:57.517Z,80.00
2023-11-19T10:15:00.966Z,80.54
2023-11-19T10:20:05.887Z,80.62
2023-11-19T10:25:30.288Z,80.48
2023-11-19T10:30:35.561Z,80.19
2023-11-19T10:36:03.376Z,80.44
2023-11-19T10:41:06.897Z,80.39
2023-11-19T10:46:15.440Z,80.32
2023-11-19T10:51:25.114Z,80.50
2023-11-19T10:56:33.231Z,80.54
2023-11-19T11:01:46.580Z,80.57
2023-11-19T11:06:51.432Z,80.53
2023-11-19T11:11:56.450Z,80.38
2023-11-19T11:17:04.320Z,80.83
2023-11-19T11:22:08.878Z,81.14
2023-11-19T11:27:36.295Z,81.28
2023-11-19T11:33:32.072Z,81.10
2023-11-19T11:38:41.144Z,81.49
2023-11-19T11:43:52.766Z,81.37
2023-11-19T11:48:57.611Z,81.24
2023-11-19T11:54:01.106Z,81.15
2023-11-19T11:59:04.172Z,81.30
2023-11-19T12:04:07.312Z,81.26
2023-11-19T12:09:10.533Z,81.44
2023-11-19T12:14:14.221Z,81.22
2023-11-19T12:19:18.292Z,81.12
2023-11-19T12:24:25.824Z,81.17
2023-11-19T12:29:28.870Z,81.37
2023-11-19T12:34:31.963Z,81.36
2023-11-19T12:39:35.310Z,80.94
2023-11-19T12:44:38.353Z,80.73
2023-11-19T12:49:41.618Z,80.66
2023-11-19T12:54:44.707Z,80.85
2023-11-19T13:00:00.402Z,81.26
2023-11-19T13:05:25.887Z,81.03
2023-11-19T13:10:29.516Z,80.51
2023-11-19T13:15:34.423Z,81.03
2023-11-19T13:20:37.473Z,80.76
2023-11-19T13:25:40.465Z,80.42
2023-11-19T13:30:43.464Z,80.62
2023-11-19T13:35:46.508Z,80.53
2023-11-19T13:40:49.514Z,80.53
2023-11-19T13:45:54.489Z,80.66
2023-11-19T13:50:57.699Z,81.06
2023-11-19T13:56:01.267Z,81.31
2023-11-19T14:01:04.620Z,81.28
2023-11-19T14:06:09.728Z,81.38
2023-11-19T14:11:12.958Z,81.47
2023-11-19T14:16:18.629Z,81.74
2023-11-19T14:21:22.527Z,82.07
2023-11-19T14:26:25.781Z,82.15
2023-11-19T14:31:34.694Z,82.20
2023-11-19T14:36:37.716Z,82.50
2023-11-19T14:41:40.816Z,82.84
2023-11-19T14:46:44.125Z,82.95
2023-11-19T14:51:49.257Z,82.97
2023-11-19T14:56:53.228Z,83.28
2023-11-19T15:01:56.424Z,83.71
2023-11-19T15:07:00.863Z,84.15
2023-11-19T15:12:06.832Z,84.26
2023-11-19T15:17:09.867Z,84.47
2023-11-19T15:22:13.684Z,84.65
2023-11-19T15:27:17.053Z,84.97
2023-11-19T15:32:20.548Z,84.97
2023-11-19T15:37:23.619Z,85.32
2023-11-19T15:42:26.621Z,85.39
2023-11-19T15:47:30.343Z,85.24
2023-11-19T15:52:33.488Z,85.25
2023-11-19T15:57:36.987Z,85.43
2023-11-19T16:02:40.774Z,85.63
2023-11-19T16:07:44.041Z,85.81
2023-11-19T16:12:47.709Z,85.59
2023-11-19T16:17:50.973Z,85.50
2023-11-19T16:22:54.221Z,85.14
2023-11-19T16:27:57.495Z,85.24
2023-11-19T16:33:01.118Z,85.16
2023-11-19T16:38:05.092Z,85.21
2023-11-19T16:43:08.192Z,85.64
2023-11-19T16:48:11.279Z,85.75
2023-11-19T16:53:14.461Z,85.41
2023-11-19T16:58:17.539Z,85.42
2023-11-19T17:03:22.046Z,85.65
2023-11-19T17:08:26.523Z,85.62
2023-11-19T17:13:29.700Z,85.56
2023-11-19T17:18:32.794Z,85.48
2023-11-19T17:23:35.985Z,85.44
2023-11-19T17:28:39.018Z,85.25
2023-11-19T17:33:42.356Z,85.44
2023-11-19T17:38:45.434Z,85.37
2023-11-19T17:43:49.963Z,85.54
2023-11-19T17:48:53.340Z,85.62
2023-11-19T17:53:56.394Z,85.58
2023-11-19T17:58:59.467Z,85.59
2023-11-19T18:04:02.592Z,85.45
2023-11-19T18:09:07.551Z,85.28
2023-11-19T18:14:12.548Z,85.37
2023-11-19T18:19:16.334Z,85.57
2023-11-19T18:24:19.406Z,85.59
2023-11-19T18:29:22.522Z,85.65
2023-11-19T18:34:25.977Z,85.64
2023-11-19T18:39:29.088Z,85.64
2023-11-19T18:44:33.617Z,85.81
2023-11-19T18:49:37.415Z,85.95
2023-11-19T18:54:40.400Z,85.97
2023-11-19T18:59:43.475Z,86.07
2023-11-19T19:04:46.726Z,85.84
2023-11-19T19:09:54.145Z,85.82
2023-11-19T19:15:16.512Z,85.57
2023-11-19T19:20:20.490Z,85.49
2023-11-19T19:25:26.610Z,85.17
2023-11-19T19:30:29.939Z,85.25
2023-11-19T19:35:33.337Z,85.48
2023-11-19T19:40:37.128Z,85.44
2023-11-19T19:45:40.198Z,85.24
2023-11-19T19:50:43.310Z,84.84
2023-11-19T19:55:46.499Z,84.93
2023-11-19T20:00:49.692Z,85.28
2023-11-19T20:05:56.529Z,85.48
2023-11-19T20:10:59.805Z,85.52
2023-11-19T20:16:03.679Z,85.43
2023-11-19T20:21:10.905Z,85.64
2023-11-19T20:26:19.240Z,85.39
2023-11-19T20:31:22.338Z,85.24
2023-11-19T20:36:25.473Z,85.10
2023-11-19T20:41:29.808Z,85.13
2023-11-19T20:46:32.809Z,84.75
2023-11-19T20:51:40.615Z,85.36
2023-11-19T20:56:44.483Z,85.02
2023-11-19T21:01:47.567Z,84.85
2023-11-19T21:11:57.846Z,84.56
2023-11-19T21:17:01.353Z,85.09
2023-11-19T21:22:05.727Z,85.22
2023-11-19T21:27:09.202Z,85.28
2023-11-19T21:32:12.874Z,85.36
2023-11-19T21:37:16.157Z,85.33
2023-11-19T21:42:22.592Z,85.43
2023-11-19T21:47:25.825Z,85.55
2023-11-19T21:52:29.141Z,85.69
2023-11-19T21:57:32.344Z,85.87
2023-11-19T22:02:35.591Z,86.08
2023-11-19T22:07:39.145Z,86.45
2023-11-19T22:12:42.374Z,86.46
2023-11-19T22:17:45.537Z,86.10
2023-11-19T22:22:48.987Z,85.84
2023-11-19T22:27:52.943Z,86.04
2023-11-19T22:32:56.275Z,86.16
2023-11-19T22:37:59.282Z,86.28
2023-11-19T22:43:02.457Z,86.19
2023-11-19T22:48:05.740Z,86.30
2023-11-19T22:53:08.813Z,86.44
2023-11-19T22:58:12.363Z,85.97
2023-11-19T23:03:15.868Z,86.00
2023-11-19T23:08:19.038Z,86.25
2023-11-19T23:13:22.143Z,86.47
2023-11-19T23:18:26.743Z,86.59
2023-11-19T23:23:29.757Z,86.77
2023-11-19T23:28:32.719Z,86.85
2023-11-19T23:33:35.789Z,86.60
2023-11-19T23:38:38.820Z,86.28
2023-11-19T23:43:41.821Z,86.22
2023-11-19T23:53:51.143Z,86.32
2023-11-19T23:58:55.127Z,86.84
